Latest Weather Observations for Leigh Creek

IDS60801

Issued at 10:31 pm CDT Monday 26 January 2015 (issued every 30 minutes, with the page automatically refreshed every 10 minutes)

About weather observations | Map of weather stations | Latest weather observations for SA | Other Formats
Station Details ID: 017110 Name: LEIGH CREEK AIRPORT Lat: -30.60 Lon: 138.42 Height: 258.8 m
Data from the previous 72 hours. | See also: Recent months at Leigh Creek
Date/Time
CDT
Temp
°C
App
Temp
°C
Dew
Point
Rel
Hum
%
Delta-T
°C
Wind Press
QNH
hPa
Press
MSL
hPa
Rain
since 9 am
mm
Dir
 
Spd
km/h
Gust
km/h
Spd
kts
Gust
kts
26/10:30pm 21.4 15.6 8.0 42 7.1 SSW 28 39 15 21 1014.1 1012.4 0.0
26/10:00pm 22.2 14.8 6.8 37 8.0 SSW 35 50 19 27 1013.9 1012.2 0.0
26/09:30pm 23.1 15.8 5.5 32 9.0 SSW 33 48 18 26 1013.4 1011.7 0.0
26/09:00pm 23.9 16.5 3.8 27 10.0 SSW 32 41 17 22 1013.0 1011.3 0.0
26/08:30pm 24.8 18.3 0.3 20 11.5 SW 24 35 13 19 1012.7 1011.0 0.0
26/08:00pm 25.7 19.0 -1.2 17 12.3 SSW 24 32 13 17 1012.5 1010.8 0.0
26/07:30pm 26.6 19.9 -1.3 16 12.9 SSW 24 33 13 18 1012.2 1010.6 0.0
26/07:00pm 27.3 20.3 -0.7 16 13.1 SW 26 35 14 19 1012.0 1010.4 0.0
26/06:30pm 28.0 21.1 -0.1 16 13.4 SW 26 32 14 17 1011.7 1010.1 0.0
26/06:00pm 28.1 21.9 -0.1 16 13.4 SW 22 37 12 20 1011.7 1010.1 0.0
26/05:30pm 28.8 22.7 0.5 16 13.7 SW 22 33 12 18 1011.7 1010.1 0.0
26/05:00pm 28.9 23.7 2.2 18 13.3 SSW 19 30 10 16 1011.9 1010.3 0.0
26/04:30pm 29.2 23.7 1.7 17 13.6 SSW 20 33 11 18 1012.0 1010.4 0.0
26/04:00pm 28.1 22.3 2.3 19 12.8 SSW 22 41 12 22 1012.5 1010.8 0.0
26/03:30pm 27.3 23.2 2.4 20 12.3 SSW 13 26 7 14 1012.7 1011.0 0.0
26/03:00pm 27.5 23.1 2.6 20 12.4 SW 15 32 8 17 1012.9 1011.2 0.0
26/02:30pm 27.0 21.6 1.4 19 12.4 SW 19 28 10 15 1013.3 1011.6 0.0
26/02:00pm 26.6 20.6 1.1 19 12.3 SSW 22 33 12 18 1013.6 1011.9 0.0
26/01:30pm 26.2 21.7 4.1 24 11.2 SSE 17 28 9 15 1014.0 1012.3 0.0
26/01:00pm 26.0 21.9 4.5 25 11.0 SSE 15 20 8 11 1014.3 1012.6 0.0
26/12:30pm 24.7 21.0 4.5 27 10.2 SSE 13 26 7 14 1014.6 1012.9 0.0
26/12:00pm 25.3 21.6 4.4 26 10.6 S 13 24 7 13 1014.9 1013.2 0.0
26/11:30am 24.0 20.4 4.9 29 9.7 SE 13 26 7 14 1015.0 1013.4 0.0
26/11:00am 23.4 19.3 4.4 29 9.5 S 15 28 8 15 1015.0 1013.4 0.0
26/10:30am 23.4 19.9 5.3 31 9.2 ESE 13 22 7 12 1015.0 1013.4 0.0
26/10:00am 22.1 17.4 5.1 33 8.5 ESE 19 28 10 15 1015.2 1013.6 0.0
26/09:30am 21.5 16.7 5.4 35 8.1 SE 20 28 11 15 1015.4 1013.8 0.0
26/09:00am 20.8 17.7 5.6 37 7.6 SE 11 19 6 10 1015.7 1014.1 0.0
26/08:30am 19.2 16.0 4.9 39 7.0 SE 11 19 6 10 1015.6 1014.0 0.0
26/08:00am 18.6 15.0 5.1 41 6.6 SE 13 22 7 12 1015.4 1013.8 0.0
26/07:30am 17.5 14.3 5.1 44 6.0 SSE 11 19 6 10 1014.8 1013.1 0.0
26/07:00am 16.5 13.7 5.2 47 5.5 SSE 9 13 5 7 1014.5 1012.8 0.0
26/06:30am 14.7 11.4 6.3 57 4.1 S 13 15 7 8 1014.2 1012.5 0.0
26/06:00am 14.8 11.2 6.9 59 3.9 SSW 15 19 8 10 1014.2 1012.5 0.0
26/05:30am 15.2 10.9 7.0 58 4.1 SSW 19 24 10 13 1013.8 1012.1 0.0
26/05:00am 15.5 11.2 7.0 57 4.2 SSW 19 22 10 12 1013.5 1011.8 0.0
26/04:30am 16.0 11.8 7.5 57 4.3 S 19 24 10 13 1013.2 1011.5 0.0
26/04:00am 16.3 11.9 7.5 56 4.5 SSW 20 24 11 13 1012.9 1011.2 0.0
26/03:30am 17.0 12.2 7.4 53 4.9 SSW 22 28 12 15 1012.7 1011.0 0.0
26/03:00am 17.4 11.8 7.2 51 5.2 SSW 26 32 14 17 1012.3 1010.7 0.0
26/02:30am 17.7 12.5 7.4 51 5.3 SSW 24 30 13 16 1012.8 1011.1 0.0
26/02:00am 18.1 13.3 7.5 50 5.4 SSW 22 28 12 15 1012.7 1011.0 0.0
26/01:30am 18.3 14.2 8.0 51 5.3 SSW 19 24 10 13 1012.9 1011.2 0.0
26/01:00am 18.7 14.5 8.4 51 5.4 SSW 20 28 11 15 1012.8 1011.1 0.0
26/12:30am 19.1 14.6 8.4 50 5.6 SSW 22 28 12 15 1012.8 1011.1 0.0
26/12:00am 19.7 14.1 8.7 49 5.8 SSW 28 35 15 19 1012.6 1010.9 0.0
 
Date/Time
CDT
Temp
°C
App
Temp
°C
Dew
Point
Rel
Hum
%
Delta-T
°C
Wind Press
QNH
hPa
Press
MSL
hPa
Rain
since 9 am
mm
Dir
 
Spd
km/h
Gust
km/h
Spd
kts
Gust
kts
25/11:30pm 20.3 14.7 8.6 47 6.2 SSW 28 35 15 19 1012.3 1010.7 0.0
25/11:00pm 21.1 14.7 8.4 44 6.7 SSW 32 43 17 23 1012.5 1010.8 0.0
25/10:30pm 21.8 15.1 7.2 39 7.6 S 32 46 17 25 1012.2 1010.6 0.0
25/10:00pm 22.1 14.9 5.9 35 8.3 SSW 33 43 18 23 1011.9 1010.3 0.0
25/09:30pm 22.5 14.4 5.4 33 8.7 SSW 37 50 20 27 1011.6 1010.0 0.0
25/09:00pm 23.0 14.8 4.5 30 9.3 SSW 37 50 20 27 1011.2 1009.5 0.0
25/08:30pm 23.8 16.5 4.7 29 9.6 SSW 32 46 17 25 1011.1 1009.4 0.0
25/08:00pm 24.8 16.4 5.6 29 9.9 SSW 39 52 21 28 1010.8 1009.1 0.0
25/07:30pm 25.9 17.1 5.5 27 10.6 SSW 41 52 22 28 1010.4 1008.7 0.0
25/07:00pm 27.6 19.5 5.2 24 11.7 SSW 37 57 20 31 1009.9 1008.2 0.0
25/06:55pm 27.3 19.1 5.0 24 11.6 SSW 37 57 20 31 1009.7 1008.0 0.0
25/06:30pm 28.4 20.7 5.3 23 12.1 SSW 35 48 19 26 1009.7 1008.0 0.0
25/06:00pm 28.2 20.3 4.5 22 12.3 SSW 35 50 19 27 1009.8 1008.1 0.0
25/05:30pm 28.5 21.1 4.1 21 12.6 SSW 32 46 17 25 1009.9 1008.2 0.0
25/05:00pm 29.4 22.8 4.1 20 13.1 SSW 28 43 15 23 1010.0 1008.3 0.0
25/04:30pm 29.4 22.9 4.8 21 12.9 SSW 28 37 15 20 1010.2 1008.5 0.0
25/04:00pm 29.6 23.8 6.3 23 12.5 SSW 26 39 14 21 1010.6 1008.9 0.0
25/03:30pm 28.5 22.1 5.4 23 12.2 SSW 28 39 15 21 1010.7 1009.0 0.0
25/03:00pm 29.5 24.3 7.4 25 12.1 SSW 24 39 13 21 1010.9 1009.2 0.0
25/02:30pm 28.3 22.0 5.8 24 11.9 SSW 28 37 15 20 1011.0 1009.3 0.0
25/02:00pm 28.7 23.4 6.7 25 11.8 SSW 24 37 13 20 1011.2 1009.5 0.0
25/01:30pm 27.4 21.8 5.6 25 11.4 SW 24 37 13 20 1011.6 1010.0 0.0
25/01:00pm 26.7 21.3 6.2 27 10.8 SSW 24 37 13 20 1011.6 1010.0 0.0
25/12:30pm 26.7 22.3 7.2 29 10.5 SSW 20 32 11 17 1011.5 1009.8 0.0
25/12:00pm 26.4 22.1 7.9 31 10.0 SW 20 33 11 18 1011.8 1010.2 0.0
25/11:30am 24.6 20.9 9.3 38 8.4 SSW 19 28 10 15 1012.1 1010.5 0.0
25/11:00am 23.5 19.9 10.6 44 7.2 SSW 20 32 11 17 1012.2 1010.6 0.0
25/10:30am 22.7 19.3 11.1 48 6.5 S 20 32 11 17 1012.2 1010.6 0.0
25/10:00am 21.7 17.2 11.4 52 5.8 SSW 26 35 14 19 1011.9 1010.3 0.0
25/09:30am 21.1 16.2 11.2 53 5.5 SSW 28 35 15 19 1012.0 1010.4 0.0
25/09:00am 19.9 15.3 10.9 56 5.0 SSW 26 35 14 19 1012.0 1010.4 0.0
25/08:30am 19.0 13.9 10.6 58 4.6 SSW 28 35 15 19 1011.9 1010.3 0.0
25/08:00am 18.3 13.4 9.9 58 4.5 SSW 26 33 14 18 1012.0 1010.4 0.0
25/07:30am 17.8 13.2 9.7 59 4.3 SSW 24 32 13 17 1011.7 1010.1 0.0
25/07:00am 17.5 13.3 9.7 60 4.2 SSW 22 30 12 16 1011.2 1009.5 0.0
25/06:30am 17.7 12.7 9.6 59 4.3 SSW 26 32 14 17 1010.8 1009.1 0.0
25/06:00am 18.1 14.4 10.2 60 4.3 SSW 20 28 11 15 1010.6 1008.9 0.0
25/05:30am 18.7 13.7 10.8 60 4.3 SSW 28 43 15 23 1010.3 1008.6 0.0
25/05:00am 19.0 13.9 12.0 64 3.9 SSW 30 39 16 21 1009.8 1008.1 0.0
25/04:30am 19.5 15.4 11.5 60 4.5 S 24 35 13 19 1009.7 1008.0 0.0
25/04:00am 20.0 15.1 11.2 57 4.9 S 28 39 15 21 1009.5 1007.8 0.0
25/03:30am 20.5 16.5 10.6 53 5.5 S 22 39 12 21 1009.4 1007.7 0.0
25/03:00am 21.0 15.8 10.2 50 5.9 S 28 41 15 22 1009.3 1007.6 0.0
25/02:30am 21.5 16.8 10.6 50 6.0 SSW 26 32 14 17 1009.1 1007.4 0.0
25/02:00am 22.0 17.3 10.8 49 6.2 SSW 26 33 14 18 1009.2 1007.5 0.0
25/01:30am 22.8 18.1 10.6 46 6.8 SSW 26 32 14 17 1009.1 1007.4 0.0
25/01:00am 23.8 19.1 9.4 40 7.9 SSW 24 32 13 17 1009.0 1007.3 0.0
25/12:30am 24.7 18.6 8.2 35 8.9 SSW 30 39 16 21 1008.8 1007.1 0.0
25/12:00am 25.3 20.0 7.0 31 9.7 SSW 24 30 13 16 1008.7 1007.0 0.0
 
Date/Time
CDT
Temp
°C
App
Temp
°C
Dew
Point
Rel
Hum
%
Delta-T
°C
Wind Press
QNH
hPa
Press
MSL
hPa
Rain
since 9 am
mm
Dir
 
Spd
km/h
Gust
km/h
Spd
kts
Gust
kts
24/11:30pm 26.3 20.5 6.3 28 10.6 SSW 26 39 14 21 1008.7 1007.0 0.0
24/11:00pm 27.7 22.0 4.7 23 11.9 SW 24 35 13 19 1008.2 1006.6 0.0
24/10:30pm 27.8 22.3 4.2 22 12.1 WSW 22 32 12 17 1008.2 1006.6 0.0
24/10:00pm 28.1 21.9 2.3 19 12.8 SW 24 35 13 19 1007.9 1006.2 0.0
24/09:30pm 28.3 22.2 2.5 19 12.9 SW 24 30 13 16 1007.6 1005.9 0.0
24/09:00pm 28.6 22.2 1.2 17 13.4 SW 24 32 13 17 1007.1 1005.4 0.0
24/08:30pm 29.1 22.3 0.7 16 13.8 SW 26 33 14 18 1006.8 1005.1 0.0
24/08:00pm 30.0 22.5 1.5 16 14.1 SSW 30 37 16 20 1006.4 1004.7 0.0
24/07:30pm 31.0 24.1 0.4 14 15.0 SW 26 39 14 21 1006.0 1004.3 0.0
24/07:02pm 31.5 23.9 0.8 14 15.2 SSW 30 48 16 26 1005.6 1003.9 0.0
24/07:00pm 31.9 24.8 1.1 14 15.4 SSW 28 43 15 23 1005.7 1004.0 0.0
24/06:30pm 32.3 26.6 5.0 18 14.6 SW 24 37 13 20 1005.6 1003.9 0.0
24/06:00pm 32.4 26.2 4.2 17 14.9 SW 26 41 14 22 1005.6 1003.9 0.0
24/05:30pm 32.6 26.7 6.0 19 14.5 SW 26 37 14 20 1005.7 1004.0 0.0
24/05:00pm 32.6 27.1 6.0 19 14.4 SW 24 33 13 18 1005.8 1004.1 0.0
24/04:30pm 33.4 28.4 6.6 19 14.8 SSW 22 41 12 22 1005.8 1004.1 0.0
24/04:00pm 32.7 28.2 6.1 19 14.5 SSW 19 32 10 17 1005.9 1004.2 0.0
24/03:30pm 32.7 27.6 7.5 21 14.1 SW 24 33 13 18 1006.2 1004.5 0.0
24/03:00pm 32.1 27.8 7.7 22 13.6 SW 20 32 11 17 1006.4 1004.7 0.0
24/02:30pm 32.3 27.8 8.5 23 13.5 SSW 22 33 12 18 1006.5 1004.8 0.0
24/02:00pm 31.5 26.4 9.1 25 12.7 SSW 26 39 14 21 1006.8 1005.1 0.0
24/01:30pm 33.0 28.6 10.4 25 13.2 SSW 24 35 13 19 1007.0 1005.3 0.0
24/01:00pm 32.5 28.9 10.5 26 12.8 SW 20 30 11 16 1007.1 1005.4 0.0
24/12:30pm 31.2 27.9 9.4 26 12.4 S 17 28 9 15 1007.3 1005.6 0.0
24/12:00pm 30.0 26.8 12.0 33 10.6 SSW 20 26 11 14 1007.4 1005.7 0.0
24/11:30am 28.8 26.0 12.7 37 9.6 S 19 26 10 14 1007.7 1006.0 0.0
24/11:00am 28.2 25.2 12.5 37 9.3 SSW 20 26 11 14 1007.8 1006.1 0.0
24/10:30am 26.5 23.5 12.5 41 8.2 SSW 20 30 11 16 1007.9 1006.2 0.0
24/10:00am 25.0 22.2 12.6 46 7.2 SSW 19 24 10 13 1008.0 1006.3 0.0
24/09:30am 23.5 20.6 12.2 49 6.5 SSW 19 26 10 14 1008.2 1006.6 0.0
24/09:00am 22.2 19.2 11.9 52 5.9 SSW 19 24 10 13 1008.2 1006.6 0.0
24/08:30am 21.3 17.4 12.2 56 5.2 SSW 24 32 13 17 1007.8 1006.1 0.0
24/08:00am 21.3 17.2 11.6 54 5.5 SSW 24 32 13 17 1007.7 1006.0 0.0
24/07:30am 21.1 18.9 12.0 56 5.2 SSW 15 22 8 12 1007.3 1005.6 0.0
24/07:00am 19.8 17.9 11.8 60 4.5 S 13 19 7 10 1006.7 1005.0 0.0
24/06:30am 19.5 16.3 11.8 61 4.3 SSW 20 26 11 14 1006.5 1004.8 0.0
24/06:00am 19.8 15.8 11.8 60 4.5 SSW 24 30 13 16 1006.5 1004.8 0.0
24/05:30am 20.2 15.9 11.9 59 4.7 SSW 26 33 14 18 1006.5 1004.8 0.0
24/05:00am 20.8 16.9 12.0 57 5.0 SSW 24 32 13 17 1006.4 1004.7 0.0
24/04:30am 21.3 17.3 11.9 55 5.3 SSW 24 30 13 16 1006.5 1004.8 0.0
24/04:00am 21.9 17.8 11.3 51 6.0 SSW 24 33 13 18 1006.4 1004.7 0.0
24/03:30am 22.3 18.4 12.0 52 5.9 SSW 24 30 13 16 1006.4 1004.7 0.0
24/03:00am 23.1 19.1 13.0 53 5.9 SSW 26 35 14 19 1006.5 1004.8 0.0
24/02:30am 23.9 19.7 13.4 51 6.2 SSW 28 35 15 19 1006.5 1004.8 0.0
24/02:00am 24.8 21.7 13.4 49 6.7 SSW 22 28 12 15 1006.5 1004.8 0.0
24/01:30am 25.4 22.3 13.3 47 7.2 SSW 22 28 12 15 1006.8 1005.1 0.0
24/01:00am 26.0 23.1 12.8 44 7.8 SSW 20 26 11 14 1007.0 1005.3 0.0
24/12:30am 26.8 23.8 12.4 40 8.5 SSW 20 24 11 13 1007.3 1005.6 0.0
24/12:00am 27.3 24.3 12.1 39 8.9 S 19 22 10 12 1007.4 1005.7 0.0
 
Date/Time
CDT
Temp
°C
App
Temp
°C
Dew
Point
Rel
Hum
%
Delta-T
°C
Wind Press
QNH
hPa
Press
MSL
hPa
Rain
since 9 am
mm
Dir
 
Spd
km/h
Gust
km/h
Spd
kts
Gust
kts
23/11:30pm 28.0 26.0 11.5 35 9.6 S 13 17 7 9 1007.6 1005.9 0.0
23/11:00pm 28.5 26.3 12.0 36 9.7 S 15 20 8 11 1007.4 1005.7 0.0

Other Formats:

Comma delimited format used in spreadsheet applications
http://www.bom.gov.au/fwo/IDS60801/IDS60801.94674.axf

JavaScript Object Notation format (JSON) in row-major order
http://www.bom.gov.au/fwo/IDS60801/IDS60801.94674.json